sensor_id;sensor_type;location;lat;lon;timestamp;P1;durP1;ratioP1;P2;durP2;ratioP2
59468;SDS011;45277;52.768;18.262;2023-05-17T00:00:30;20.63;;;12.75;;
59468;SDS011;45277;52.768;18.262;2023-05-17T00:02:19;20.45;;;12.52;;
59468;SDS011;45277;52.768;18.262;2023-05-17T00:03:51;19.92;;;13.02;;
59468;SDS011;45277;52.768;18.262;2023-05-17T00:05:23;20.63;;;12.70;;
59468;SDS011;45277;52.768;18.262;2023-05-17T00:06:55;20.27;;;12.60;;
59468;SDS011;45277;52.768;18.262;2023-05-17T00:08:26;20.40;;;12.93;;
59468;SDS011;45277;52.768;18.262;2023-05-17T00:09:57;22.45;;;12.27;;
59468;SDS011;45277;52.768;18.262;2023-05-17T00:11:29;21.08;;;11.57;;
59468;SDS011;45277;52.768;18.262;2023-05-17T00:13:01;20.38;;;12.07;;
59468;SDS011;45277;52.768;18.262;2023-05-17T00:14:33;23.30;;;12.02;;
59468;SDS011;45277;52.768;18.262;2023-05-17T00:16:05;17.73;;;12.63;;
59468;SDS011;45277;52.768;18.262;2023-05-17T00:17:37;20.58;;;12.70;;
59468;SDS011;45277;52.768;18.262;2023-05-17T00:19:08;25.98;;;14.27;;
59468;SDS011;45277;52.768;18.262;2023-05-17T00:20:40;21.60;;;12.75;;
59468;SDS011;45277;52.768;18.262;2023-05-17T00:22:11;25.33;;;13.52;;
59468;SDS011;45277;52.768;18.262;2023-05-17T00:23:43;20.30;;;13.45;;
59468;SDS011;45277;52.768;18.262;2023-05-17T00:25:14;18.80;;;13.13;;
59468;SDS011;45277;52.768;18.262;2023-05-17T00:26:46;24.90;;;13.75;;
59468;SDS011;45277;52.768;18.262;2023-05-17T00:28:17;22.30;;;13.25;;
59468;SDS011;45277;52.768;18.262;2023-05-17T00:29:48;27.20;;;13.65;;
59468;SDS011;45277;52.768;18.262;2023-05-17T00:31:20;22.50;;;13.77;;
59468;SDS011;45277;52.768;18.262;2023-05-17T00:32:51;23.88;;;13.52;;
59468;SDS011;45277;52.768;18.262;2023-05-17T00:34:22;30.67;;;15.80;;
59468;SDS011;45277;52.768;18.262;2023-05-17T00:35:54;21.35;;;13.70;;
59468;SDS011;45277;52.768;18.262;2023-05-17T00:37:26;22.80;;;14.60;;
59468;SDS011;45277;52.768;18.262;2023-05-17T00:38:57;21.23;;;15.05;;
59468;SDS011;45277;52.768;18.262;2023-05-17T00:40:29;24.55;;;14.63;;
59468;SDS011;45277;52.768;18.262;2023-05-17T00:42:00;23.00;;;14.85;;
59468;SDS011;45277;52.768;18.262;2023-05-17T00:43:31;20.88;;;13.98;;
59468;SDS011;45277;52.768;18.262;2023-05-17T00:45:03;22.48;;;13.55;;
59468;SDS011;45277;52.768;18.262;2023-05-17T00:46:35;27.55;;;15.50;;
59468;SDS011;45277;52.768;18.262;2023-05-17T00:48:06;22.13;;;14.45;;
59468;SDS011;45277;52.768;18.262;2023-05-17T00:49:38;21.58;;;14.57;;
59468;SDS011;45277;52.768;18.262;2023-05-17T00:51:10;25.20;;;14.27;;
59468;SDS011;45277;52.768;18.262;2023-05-17T00:52:42;24.80;;;14.15;;
59468;SDS011;45277;52.768;18.262;2023-05-17T00:54:15;25.58;;;15.48;;
59468;SDS011;45277;52.768;18.262;2023-05-17T00:55:46;23.17;;;15.10;;
59468;SDS011;45277;52.768;18.262;2023-05-17T00:57:18;22.00;;;14.63;;
59468;SDS011;45277;52.768;18.262;2023-05-17T00:58:50;23.60;;;14.75;;
59468;SDS011;45277;52.768;18.262;2023-05-17T01:00:23;24.55;;;16.33;;
59468;SDS011;45277;52.768;18.262;2023-05-17T01:01:54;27.35;;;15.57;;
59468;SDS011;45277;52.768;18.262;2023-05-17T01:03:26;26.17;;;15.43;;
59468;SDS011;45277;52.768;18.262;2023-05-17T01:04:57;28.48;;;14.98;;
59468;SDS011;45277;52.768;18.262;2023-05-17T01:06:29;20.48;;;14.23;;
59468;SDS011;45277;52.768;18.262;2023-05-17T01:08:01;23.02;;;14.00;;
59468;SDS011;45277;52.768;18.262;2023-05-17T01:09:32;21.77;;;14.27;;
59468;SDS011;45277;52.768;18.262;2023-05-17T01:12:58;27.50;;;14.50;;
59468;SDS011;45277;52.768;18.262;2023-05-17T01:14:56;20.77;;;14.40;;
59468;SDS011;45277;52.768;18.262;2023-05-17T01:16:50;19.85;;;13.20;;
59468;SDS011;45277;52.768;18.262;2023-05-17T01:18:40;24.63;;;14.70;;
59468;SDS011;45277;52.768;18.262;2023-05-17T01:20:25;22.55;;;15.13;;
59468;SDS011;45277;52.768;18.262;2023-05-17T01:27:48;22.40;;;12.55;;
59468;SDS011;45277;52.768;18.262;2023-05-17T01:29:22;19.05;;;13.82;;
59468;SDS011;45277;52.768;18.262;2023-05-17T01:30:57;21.88;;;12.63;;
59468;SDS011;45277;52.768;18.262;2023-05-17T01:32:31;21.63;;;13.55;;
59468;SDS011;45277;52.768;18.262;2023-05-17T01:34:07;21.05;;;13.45;;
59468;SDS011;45277;52.768;18.262;2023-05-17T01:35:38;22.77;;;12.68;;
59468;SDS011;45277;52.768;18.262;2023-05-17T01:37:10;17.70;;;10.63;;
59468;SDS011;45277;52.768;18.262;2023-05-17T01:38:41;18.63;;;12.15;;
59468;SDS011;45277;52.768;18.262;2023-05-17T01:40:12;19.33;;;10.88;;
59468;SDS011;45277;52.768;18.262;2023-05-17T01:41:54;16.30;;;10.70;;
59468;SDS011;45277;52.768;18.262;2023-05-17T01:43:44;16.23;;;11.55;;
59468;SDS011;45277;52.768;18.262;2023-05-17T01:45:34;14.15;;;9.63;;
59468;SDS011;45277;52.768;18.262;2023-05-17T01:47:23;21.52;;;9.75;;
59468;SDS011;45277;52.768;18.262;2023-05-17T01:49:20;16.60;;;9.82;;
59468;SDS011;45277;52.768;18.262;2023-05-17T01:50:56;18.88;;;9.63;;
59468;SDS011;45277;52.768;18.262;2023-05-17T01:52:45;19.42;;;9.63;;
59468;SDS011;45277;52.768;18.262;2023-05-17T01:54:21;16.00;;;9.30;;
59468;SDS011;45277;52.768;18.262;2023-05-17T01:55:59;14.90;;;8.95;;
59468;SDS011;45277;52.768;18.262;2023-05-17T01:57:37;16.17;;;9.27;;
59468;SDS011;45277;52.768;18.262;2023-05-17T01:59:14;16.90;;;8.70;;
59468;SDS011;45277;52.768;18.262;2023-05-17T02:00:54;15.45;;;8.80;;
59468;SDS011;45277;52.768;18.262;2023-05-17T02:02:27;13.20;;;8.93;;
59468;SDS011;45277;52.768;18.262;2023-05-17T02:03:58;12.38;;;8.32;;
59468;SDS011;45277;52.768;18.262;2023-05-17T02:05:29;13.77;;;7.90;;
59468;SDS011;45277;52.768;18.262;2023-05-17T02:07:01;12.02;;;7.43;;
59468;SDS011;45277;52.768;18.262;2023-05-17T02:08:33;11.25;;;8.10;;
59468;SDS011;45277;52.768;18.262;2023-05-17T02:10:04;14.15;;;8.35;;
59468;SDS011;45277;52.768;18.262;2023-05-17T02:11:36;11.93;;;6.88;;
59468;SDS011;45277;52.768;18.262;2023-05-17T02:13:07;13.27;;;7.65;;
59468;SDS011;45277;52.768;18.262;2023-05-17T02:14:39;11.70;;;7.75;;
59468;SDS011;45277;52.768;18.262;2023-05-17T02:16:11;14.63;;;6.60;;
59468;SDS011;45277;52.768;18.262;2023-05-17T02:17:42;14.52;;;7.40;;
59468;SDS011;45277;52.768;18.262;2023-05-17T02:19:14;13.10;;;7.60;;
59468;SDS011;45277;52.768;18.262;2023-05-17T02:20:45;14.35;;;7.78;;
59468;SDS011;45277;52.768;18.262;2023-05-17T02:22:17;15.98;;;7.55;;
59468;SDS011;45277;52.768;18.262;2023-05-17T02:23:48;12.73;;;7.20;;
59468;SDS011;45277;52.768;18.262;2023-05-17T02:25:20;15.65;;;7.13;;
59468;SDS011;45277;52.768;18.262;2023-05-17T02:26:52;12.95;;;8.15;;
59468;SDS011;45277;52.768;18.262;2023-05-17T02:28:23;15.75;;;7.43;;
59468;SDS011;45277;52.768;18.262;2023-05-17T02:29:55;14.38;;;7.25;;
59468;SDS011;45277;52.768;18.262;2023-05-17T02:31:26;11.75;;;6.32;;
59468;SDS011;45277;52.768;18.262;2023-05-17T02:32:58;11.25;;;7.70;;
59468;SDS011;45277;52.768;18.262;2023-05-17T02:34:29;15.93;;;7.78;;
59468;SDS011;45277;52.768;18.262;2023-05-17T02:36:01;14.80;;;7.20;;
59468;SDS011;45277;52.768;18.262;2023-05-17T02:37:32;11.93;;;6.97;;
59468;SDS011;45277;52.768;18.262;2023-05-17T02:39:04;15.30;;;6.82;;
59468;SDS011;45277;52.768;18.262;2023-05-17T02:40:35;13.35;;;7.80;;
59468;SDS011;45277;52.768;18.262;2023-05-17T02:42:06;12.50;;;6.90;;
59468;SDS011;45277;52.768;18.262;2023-05-17T02:43:38;15.77;;;6.25;;
59468;SDS011;45277;52.768;18.262;2023-05-17T02:45:10;12.77;;;6.72;;
59468;SDS011;45277;52.768;18.262;2023-05-17T02:46:41;13.80;;;6.18;;
59468;SDS011;45277;52.768;18.262;2023-05-17T02:48:13;10.45;;;6.63;;
59468;SDS011;45277;52.768;18.262;2023-05-17T02:49:44;10.40;;;5.47;;
59468;SDS011;45277;52.768;18.262;2023-05-17T02:51:15;9.90;;;5.93;;
59468;SDS011;45277;52.768;18.262;2023-05-17T02:52:47;12.32;;;6.13;;
59468;SDS011;45277;52.768;18.262;2023-05-17T02:54:18;17.08;;;5.55;;
59468;SDS011;45277;52.768;18.262;2023-05-17T02:55:50;10.15;;;5.95;;
59468;SDS011;45277;52.768;18.262;2023-05-17T02:57:24;10.32;;;5.90;;
59468;SDS011;45277;52.768;18.262;2023-05-17T02:58:56;10.55;;;6.25;;
59468;SDS011;45277;52.768;18.262;2023-05-17T03:00:29;10.15;;;6.40;;
59468;SDS011;45277;52.768;18.262;2023-05-17T03:02:00;10.10;;;5.88;;
59468;SDS011;45277;52.768;18.262;2023-05-17T03:03:32;8.20;;;5.55;;
59468;SDS011;45277;52.768;18.262;2023-05-17T03:05:03;12.07;;;6.00;;
59468;SDS011;45277;52.768;18.262;2023-05-17T03:06:36;12.27;;;6.13;;
59468;SDS011;45277;52.768;18.262;2023-05-17T03:08:08;10.38;;;5.78;;
59468;SDS011;45277;52.768;18.262;2023-05-17T03:09:39;11.05;;;5.78;;
59468;SDS011;45277;52.768;18.262;2023-05-17T03:11:12;9.65;;;5.03;;
59468;SDS011;45277;52.768;18.262;2023-05-17T03:12:44;12.07;;;5.32;;
59468;SDS011;45277;52.768;18.262;2023-05-17T03:14:15;12.00;;;6.15;;
59468;SDS011;45277;52.768;18.262;2023-05-17T03:15:47;9.73;;;5.60;;
59468;SDS011;45277;52.768;18.262;2023-05-17T03:17:18;8.30;;;5.25;;
59468;SDS011;45277;52.768;18.262;2023-05-17T03:18:50;10.88;;;5.30;;
59468;SDS011;45277;52.768;18.262;2023-05-17T03:20:21;11.95;;;5.90;;
59468;SDS011;45277;52.768;18.262;2023-05-17T03:21:53;11.02;;;4.80;;
59468;SDS011;45277;52.768;18.262;2023-05-17T03:23:24;7.00;;;4.85;;
59468;SDS011;45277;52.768;18.262;2023-05-17T03:24:56;7.40;;;3.67;;
59468;SDS011;45277;52.768;18.262;2023-05-17T03:26:28;11.52;;;5.13;;
59468;SDS011;45277;52.768;18.262;2023-05-17T03:28:00;9.27;;;4.95;;
59468;SDS011;45277;52.768;18.262;2023-05-17T03:29:31;10.73;;;4.53;;
59468;SDS011;45277;52.768;18.262;2023-05-17T03:31:03;6.63;;;4.55;;
59468;SDS011;45277;52.768;18.262;2023-05-17T03:32:34;7.78;;;4.90;;
59468;SDS011;45277;52.768;18.262;2023-05-17T03:34:09;9.57;;;5.07;;
59468;SDS011;45277;52.768;18.262;2023-05-17T03:35:40;8.18;;;4.60;;
59468;SDS011;45277;52.768;18.262;2023-05-17T03:37:12;8.90;;;4.93;;
59468;SDS011;45277;52.768;18.262;2023-05-17T03:38:43;7.95;;;4.47;;
59468;SDS011;45277;52.768;18.262;2023-05-17T03:40:15;12.88;;;4.80;;
59468;SDS011;45277;52.768;18.262;2023-05-17T03:41:46;13.68;;;4.78;;
59468;SDS011;45277;52.768;18.262;2023-05-17T03:43:18;11.25;;;4.70;;
59468;SDS011;45277;52.768;18.262;2023-05-17T03:44:49;14.23;;;4.57;;
59468;SDS011;45277;52.768;18.262;2023-05-17T03:46:21;7.75;;;4.25;;
59468;SDS011;45277;52.768;18.262;2023-05-17T03:47:53;12.23;;;4.88;;
59468;SDS011;45277;52.768;18.262;2023-05-17T03:49:24;9.05;;;4.95;;
59468;SDS011;45277;52.768;18.262;2023-05-17T03:50:55;8.95;;;4.40;;
59468;SDS011;45277;52.768;18.262;2023-05-17T03:52:28;7.90;;;3.97;;
59468;SDS011;45277;52.768;18.262;2023-05-17T03:53:59;3.70;;;2.88;;
59468;SDS011;45277;52.768;18.262;2023-05-17T03:55:31;8.68;;;4.25;;
59468;SDS011;45277;52.768;18.262;2023-05-17T03:57:03;9.05;;;5.25;;
59468;SDS011;45277;52.768;18.262;2023-05-17T03:58:34;10.63;;;4.80;;
59468;SDS011;45277;52.768;18.262;2023-05-17T04:00:06;10.07;;;4.43;;
59468;SDS011;45277;52.768;18.262;2023-05-17T04:01:42;11.13;;;4.60;;
59468;SDS011;45277;52.768;18.262;2023-05-17T04:03:14;11.65;;;4.25;;
59468;SDS011;45277;52.768;18.262;2023-05-17T04:04:49;8.75;;;4.68;;
59468;SDS011;45277;52.768;18.262;2023-05-17T04:06:22;9.85;;;3.90;;
59468;SDS011;45277;52.768;18.262;2023-05-17T04:07:54;6.80;;;4.22;;
59468;SDS011;45277;52.768;18.262;2023-05-17T04:09:26;11.60;;;4.50;;
59468;SDS011;45277;52.768;18.262;2023-05-17T04:10:57;8.63;;;4.10;;
59468;SDS011;45277;52.768;18.262;2023-05-17T04:12:30;9.80;;;4.10;;
59468;SDS011;45277;52.768;18.262;2023-05-17T04:14:02;9.05;;;4.07;;
59468;SDS011;45277;52.768;18.262;2023-05-17T04:15:34;10.32;;;3.95;;
59468;SDS011;45277;52.768;18.262;2023-05-17T04:17:06;7.25;;;4.32;;
59468;SDS011;45277;52.768;18.262;2023-05-17T04:18:38;11.43;;;4.68;;
59468;SDS011;45277;52.768;18.262;2023-05-17T04:20:10;11.18;;;3.97;;
59468;SDS011;45277;52.768;18.262;2023-05-17T04:21:43;7.80;;;3.78;;
59468;SDS011;45277;52.768;18.262;2023-05-17T04:23:15;9.48;;;4.25;;
59468;SDS011;45277;52.768;18.262;2023-05-17T04:24:46;8.95;;;3.97;;
59468;SDS011;45277;52.768;18.262;2023-05-17T04:26:18;4.82;;;3.45;;
59468;SDS011;45277;52.768;18.262;2023-05-17T04:27:50;8.10;;;3.92;;
59468;SDS011;45277;52.768;18.262;2023-05-17T04:29:22;4.38;;;3.15;;
59468;SDS011;45277;52.768;18.262;2023-05-17T04:30:54;6.38;;;3.42;;
59468;SDS011;45277;52.768;18.262;2023-05-17T04:32:25;4.18;;;2.97;;
59468;SDS011;45277;52.768;18.262;2023-05-17T04:33:57;6.47;;;3.30;;
59468;SDS011;45277;52.768;18.262;2023-05-17T04:35:29;6.50;;;3.35;;
59468;SDS011;45277;52.768;18.262;2023-05-17T04:37:00;8.57;;;2.88;;
59468;SDS011;45277;52.768;18.262;2023-05-17T04:38:32;4.38;;;2.60;;
59468;SDS011;45277;52.768;18.262;2023-05-17T04:40:04;6.45;;;3.55;;
59468;SDS011;45277;52.768;18.262;2023-05-17T04:41:37;9.15;;;3.28;;
59468;SDS011;45277;52.768;18.262;2023-05-17T04:43:09;7.75;;;3.45;;
59468;SDS011;45277;52.768;18.262;2023-05-17T04:44:40;14.70;;;3.50;;
59468;SDS011;45277;52.768;18.262;2023-05-17T04:46:11;5.60;;;3.10;;
59468;SDS011;45277;52.768;18.262;2023-05-17T04:47:43;6.35;;;2.80;;
59468;SDS011;45277;52.768;18.262;2023-05-17T04:49:15;6.68;;;3.33;;
59468;SDS011;45277;52.768;18.262;2023-05-17T04:50:46;6.15;;;3.05;;
59468;SDS011;45277;52.768;18.262;2023-05-17T04:52:18;6.55;;;3.08;;
59468;SDS011;45277;52.768;18.262;2023-05-17T04:53:49;5.82;;;3.00;;
59468;SDS011;45277;52.768;18.262;2023-05-17T04:55:20;9.20;;;3.10;;
59468;SDS011;45277;52.768;18.262;2023-05-17T04:56:52;6.07;;;3.17;;
59468;SDS011;45277;52.768;18.262;2023-05-17T04:58:24;12.23;;;2.45;;
59468;SDS011;45277;52.768;18.262;2023-05-17T04:59:55;4.47;;;2.20;;
59468;SDS011;45277;52.768;18.262;2023-05-17T05:01:27;6.32;;;3.05;;
59468;SDS011;45277;52.768;18.262;2023-05-17T05:03:00;7.22;;;2.78;;
59468;SDS011;45277;52.768;18.262;2023-05-17T05:04:31;4.35;;;2.20;;
59468;SDS011;45277;52.768;18.262;2023-05-17T05:06:03;5.88;;;2.78;;
59468;SDS011;45277;52.768;18.262;2023-05-17T05:07:35;5.80;;;2.72;;
59468;SDS011;45277;52.768;18.262;2023-05-17T05:09:09;3.35;;;2.03;;
59468;SDS011;45277;52.768;18.262;2023-05-17T05:10:41;5.38;;;2.50;;
59468;SDS011;45277;52.768;18.262;2023-05-17T05:12:12;1.90;;;1.77;;
59468;SDS011;45277;52.768;18.262;2023-05-17T05:13:43;3.20;;;2.35;;
59468;SDS011;45277;52.768;18.262;2023-05-17T05:15:15;4.50;;;2.08;;
59468;SDS011;45277;52.768;18.262;2023-05-17T05:16:46;5.35;;;2.50;;
59468;SDS011;45277;52.768;18.262;2023-05-17T05:18:17;5.88;;;3.05;;
59468;SDS011;45277;52.768;18.262;2023-05-17T05:19:49;6.38;;;2.97;;
59468;SDS011;45277;52.768;18.262;2023-05-17T05:21:21;8.48;;;2.45;;
59468;SDS011;45277;52.768;18.262;2023-05-17T05:22:53;5.57;;;2.08;;
59468;SDS011;45277;52.768;18.262;2023-05-17T05:24:24;6.00;;;2.42;;
59468;SDS011;45277;52.768;18.262;2023-05-17T05:25:56;7.72;;;3.03;;
59468;SDS011;45277;52.768;18.262;2023-05-17T05:27:27;4.25;;;2.38;;
59468;SDS011;45277;52.768;18.262;2023-05-17T05:28:59;9.80;;;3.15;;
59468;SDS011;45277;52.768;18.262;2023-05-17T05:30:31;10.38;;;3.08;;
59468;SDS011;45277;52.768;18.262;2023-05-17T05:32:02;7.32;;;2.55;;
59468;SDS011;45277;52.768;18.262;2023-05-17T05:33:34;5.25;;;2.40;;
59468;SDS011;45277;52.768;18.262;2023-05-17T05:35:06;6.93;;;2.30;;
59468;SDS011;45277;52.768;18.262;2023-05-17T05:36:38;5.88;;;2.50;;
59468;SDS011;45277;52.768;18.262;2023-05-17T05:38:09;5.70;;;2.85;;
59468;SDS011;45277;52.768;18.262;2023-05-17T05:39:41;6.88;;;2.60;;
59468;SDS011;45277;52.768;18.262;2023-05-17T05:41:13;8.15;;;3.10;;
59468;SDS011;45277;52.768;18.262;2023-05-17T05:42:45;6.00;;;2.00;;
59468;SDS011;45277;52.768;18.262;2023-05-17T05:44:16;6.03;;;2.50;;
59468;SDS011;45277;52.768;18.262;2023-05-17T05:45:48;8.63;;;2.60;;
59468;SDS011;45277;52.768;18.262;2023-05-17T05:47:20;11.98;;;3.00;;
59468;SDS011;45277;52.768;18.262;2023-05-17T05:48:51;13.02;;;3.22;;
59468;SDS011;45277;52.768;18.262;2023-05-17T05:50:22;7.22;;;3.13;;
59468;SDS011;45277;52.768;18.262;2023-05-17T05:51:54;5.13;;;2.83;;
59468;SDS011;45277;52.768;18.262;2023-05-17T05:53:26;12.20;;;3.00;;
59468;SDS011;45277;52.768;18.262;2023-05-17T05:54:57;10.60;;;2.85;;
59468;SDS011;45277;52.768;18.262;2023-05-17T05:56:29;5.18;;;2.63;;
59468;SDS011;45277;52.768;18.262;2023-05-17T05:58:00;6.18;;;3.20;;
59468;SDS011;45277;52.768;18.262;2023-05-17T05:59:32;5.57;;;2.50;;
59468;SDS011;45277;52.768;18.262;2023-05-17T06:01:04;7.85;;;3.33;;
59468;SDS011;45277;52.768;18.262;2023-05-17T06:02:36;8.27;;;2.83;;
59468;SDS011;45277;52.768;18.262;2023-05-17T06:04:08;5.88;;;2.90;;
59468;SDS011;45277;52.768;18.262;2023-05-17T06:05:40;8.20;;;3.00;;
59468;SDS011;45277;52.768;18.262;2023-05-17T06:07:11;7.97;;;3.13;;
59468;SDS011;45277;52.768;18.262;2023-05-17T06:08:46;5.60;;;2.65;;
59468;SDS011;45277;52.768;18.262;2023-05-17T06:10:17;3.40;;;2.00;;
59468;SDS011;45277;52.768;18.262;2023-05-17T06:11:51;9.43;;;4.00;;
59468;SDS011;45277;52.768;18.262;2023-05-17T06:13:23;7.25;;;2.42;;
59468;SDS011;45277;52.768;18.262;2023-05-17T06:14:55;7.03;;;2.65;;
59468;SDS011;45277;52.768;18.262;2023-05-17T06:16:27;7.43;;;3.38;;
59468;SDS011;45277;52.768;18.262;2023-05-17T06:18:01;3.53;;;2.10;;
59468;SDS011;45277;52.768;18.262;2023-05-17T06:19:33;5.88;;;2.70;;
59468;SDS011;45277;52.768;18.262;2023-05-17T06:21:05;8.55;;;3.55;;
59468;SDS011;45277;52.768;18.262;2023-05-17T06:22:37;12.70;;;3.33;;
59468;SDS011;45277;52.768;18.262;2023-05-17T06:24:12;11.70;;;2.60;;
59468;SDS011;45277;52.768;18.262;2023-05-17T06:25:46;11.85;;;3.53;;
59468;SDS011;45277;52.768;18.262;2023-05-17T06:27:18;7.32;;;2.78;;
59468;SDS011;45277;52.768;18.262;2023-05-17T06:28:50;14.32;;;3.00;;
59468;SDS011;45277;52.768;18.262;2023-05-17T06:30:22;7.30;;;2.65;;
59468;SDS011;45277;52.768;18.262;2023-05-17T06:31:53;6.35;;;2.88;;
59468;SDS011;45277;52.768;18.262;2023-05-17T06:33:27;8.27;;;3.17;;
59468;SDS011;45277;52.768;18.262;2023-05-17T06:34:59;13.20;;;4.35;;
59468;SDS011;45277;52.768;18.262;2023-05-17T06:36:36;8.70;;;3.75;;
59468;SDS011;45277;52.768;18.262;2023-05-17T06:38:08;13.88;;;4.18;;
59468;SDS011;45277;52.768;18.262;2023-05-17T06:39:39;9.20;;;2.60;;
59468;SDS011;45277;52.768;18.262;2023-05-17T06:41:14;5.22;;;2.95;;
59468;SDS011;45277;52.768;18.262;2023-05-17T06:42:46;4.88;;;2.65;;
59468;SDS011;45277;52.768;18.262;2023-05-17T06:44:18;9.80;;;3.22;;
59468;SDS011;45277;52.768;18.262;2023-05-17T06:45:49;7.93;;;3.47;;
59468;SDS011;45277;52.768;18.262;2023-05-17T06:47:30;9.65;;;3.75;;
59468;SDS011;45277;52.768;18.262;2023-05-17T06:49:01;8.85;;;3.00;;
59468;SDS011;45277;52.768;18.262;2023-05-17T06:50:38;8.57;;;3.60;;
59468;SDS011;45277;52.768;18.262;2023-05-17T06:52:11;6.53;;;3.47;;
59468;SDS011;45277;52.768;18.262;2023-05-17T06:53:42;8.40;;;3.30;;
59468;SDS011;45277;52.768;18.262;2023-05-17T06:55:14;8.77;;;3.47;;
59468;SDS011;45277;52.768;18.262;2023-05-17T06:56:46;9.45;;;4.20;;
59468;SDS011;45277;52.768;18.262;2023-05-17T06:58:20;7.13;;;3.15;;
59468;SDS011;45277;52.768;18.262;2023-05-17T06:59:52;10.32;;;3.70;;
59468;SDS011;45277;52.768;18.262;2023-05-17T07:01:23;10.02;;;3.30;;
59468;SDS011;45277;52.768;18.262;2023-05-17T07:02:55;11.35;;;3.80;;
59468;SDS011;45277;52.768;18.262;2023-05-17T07:04:26;13.50;;;4.50;;
59468;SDS011;45277;52.768;18.262;2023-05-17T07:05:58;4.00;;;2.63;;
59468;SDS011;45277;52.768;18.262;2023-05-17T07:07:31;13.00;;;3.88;;
59468;SDS011;45277;52.768;18.262;2023-05-17T07:09:03;10.30;;;3.05;;
59468;SDS011;45277;52.768;18.262;2023-05-17T07:10:35;7.55;;;2.85;;
59468;SDS011;45277;52.768;18.262;2023-05-17T07:12:06;7.93;;;3.33;;
59468;SDS011;45277;52.768;18.262;2023-05-17T07:13:38;7.00;;;3.40;;
59468;SDS011;45277;52.768;18.262;2023-05-17T07:15:10;7.47;;;2.85;;
59468;SDS011;45277;52.768;18.262;2023-05-17T07:16:42;6.47;;;3.47;;
59468;SDS011;45277;52.768;18.262;2023-05-17T07:18:13;8.48;;;3.53;;
59468;SDS011;45277;52.768;18.262;2023-05-17T07:19:46;9.52;;;3.08;;
59468;SDS011;45277;52.768;18.262;2023-05-17T07:21:20;7.55;;;3.55;;
59468;SDS011;45277;52.768;18.262;2023-05-17T07:22:53;9.63;;;3.72;;
59468;SDS011;45277;52.768;18.262;2023-05-17T07:24:25;7.68;;;2.85;;
59468;SDS011;45277;52.768;18.262;2023-05-17T07:25:56;9.55;;;3.25;;
59468;SDS011;45277;52.768;18.262;2023-05-17T07:27:28;14.27;;;4.32;;
59468;SDS011;45277;52.768;18.262;2023-05-17T07:28:59;12.70;;;3.83;;
59468;SDS011;45277;52.768;18.262;2023-05-17T07:30:31;10.90;;;3.90;;
59468;SDS011;45277;52.768;18.262;2023-05-17T07:32:02;9.48;;;3.63;;
59468;SDS011;45277;52.768;18.262;2023-05-17T07:33:35;8.65;;;3.63;;
59468;SDS011;45277;52.768;18.262;2023-05-17T07:35:07;9.07;;;3.53;;
59468;SDS011;45277;52.768;18.262;2023-05-17T07:36:39;8.38;;;3.20;;
59468;SDS011;45277;52.768;18.262;2023-05-17T07:38:11;9.32;;;3.72;;
59468;SDS011;45277;52.768;18.262;2023-05-17T07:39:42;9.45;;;3.58;;
59468;SDS011;45277;52.768;18.262;2023-05-17T07:41:14;5.97;;;3.85;;
59468;SDS011;45277;52.768;18.262;2023-05-17T07:42:46;10.35;;;3.75;;
59468;SDS011;45277;52.768;18.262;2023-05-17T07:44:18;13.07;;;4.43;;
59468;SDS011;45277;52.768;18.262;2023-05-17T07:45:54;15.45;;;5.13;;
59468;SDS011;45277;52.768;18.262;2023-05-17T07:47:26;8.35;;;3.85;;
59468;SDS011;45277;52.768;18.262;2023-05-17T07:48:57;9.43;;;3.95;;
59468;SDS011;45277;52.768;18.262;2023-05-17T07:50:29;10.55;;;4.03;;
59468;SDS011;45277;52.768;18.262;2023-05-17T07:52:01;9.82;;;4.13;;
59468;SDS011;45277;52.768;18.262;2023-05-17T07:53:33;8.82;;;3.67;;
59468;SDS011;45277;52.768;18.262;2023-05-17T07:55:04;9.48;;;2.90;;
59468;SDS011;45277;52.768;18.262;2023-05-17T07:56:37;6.97;;;2.92;;
59468;SDS011;45277;52.768;18.262;2023-05-17T07:58:11;7.40;;;3.38;;
59468;SDS011;45277;52.768;18.262;2023-05-17T07:59:42;7.47;;;3.17;;
59468;SDS011;45277;52.768;18.262;2023-05-17T08:01:14;6.85;;;3.13;;
59468;SDS011;45277;52.768;18.262;2023-05-17T08:02:46;5.28;;;2.90;;
59468;SDS011;45277;52.768;18.262;2023-05-17T08:04:17;7.97;;;3.08;;
59468;SDS011;45277;52.768;18.262;2023-05-17T08:05:49;9.45;;;4.00;;
59468;SDS011;45277;52.768;18.262;2023-05-17T08:07:21;7.05;;;3.08;;
59468;SDS011;45277;52.768;18.262;2023-05-17T08:08:54;5.55;;;3.10;;
59468;SDS011;45277;52.768;18.262;2023-05-17T08:10:26;7.20;;;3.58;;
59468;SDS011;45277;52.768;18.262;2023-05-17T08:11:57;8.35;;;3.45;;
59468;SDS011;45277;52.768;18.262;2023-05-17T08:13:28;12.45;;;4.10;;
59468;SDS011;45277;52.768;18.262;2023-05-17T08:15:00;8.95;;;3.33;;
59468;SDS011;45277;52.768;18.262;2023-05-17T08:16:32;8.30;;;3.00;;
59468;SDS011;45277;52.768;18.262;2023-05-17T08:18:04;9.80;;;3.38;;
59468;SDS011;45277;52.768;18.262;2023-05-17T08:19:36;8.75;;;3.30;;
59468;SDS011;45277;52.768;18.262;2023-05-17T08:21:07;7.47;;;2.90;;
59468;SDS011;45277;52.768;18.262;2023-05-17T08:22:39;8.63;;;3.40;;
59468;SDS011;45277;52.768;18.262;2023-05-17T08:24:11;13.32;;;3.45;;
59468;SDS011;45277;52.768;18.262;2023-05-17T08:25:42;8.07;;;3.40;;
59468;SDS011;45277;52.768;18.262;2023-05-17T08:27:14;13.82;;;4.07;;
59468;SDS011;45277;52.768;18.262;2023-05-17T08:28:47;10.20;;;3.95;;
59468;SDS011;45277;52.768;18.262;2023-05-17T08:30:18;6.68;;;3.42;;
59468;SDS011;45277;52.768;18.262;2023-05-17T08:31:49;7.28;;;3.10;;
59468;SDS011;45277;52.768;18.262;2023-05-17T08:33:22;7.95;;;3.35;;
59468;SDS011;45277;52.768;18.262;2023-05-17T08:34:55;14.27;;;3.90;;
59468;SDS011;45277;52.768;18.262;2023-05-17T08:36:27;11.18;;;3.50;;
59468;SDS011;45277;52.768;18.262;2023-05-17T08:37:59;7.93;;;2.97;;
59468;SDS011;45277;52.768;18.262;2023-05-17T08:39:31;9.65;;;3.47;;
59468;SDS011;45277;52.768;18.262;2023-05-17T08:41:04;8.45;;;3.60;;
59468;SDS011;45277;52.768;18.262;2023-05-17T08:42:36;9.95;;;4.28;;
59468;SDS011;45277;52.768;18.262;2023-05-17T08:44:08;8.23;;;3.60;;
59468;SDS011;45277;52.768;18.262;2023-05-17T08:45:40;11.63;;;2.78;;
59468;SDS011;45277;52.768;18.262;2023-05-17T08:47:12;7.07;;;2.65;;
59468;SDS011;45277;52.768;18.262;2023-05-17T08:48:55;7.97;;;3.85;;
59468;SDS011;45277;52.768;18.262;2023-05-17T08:50:31;9.88;;;3.58;;
59468;SDS011;45277;52.768;18.262;2023-05-17T08:52:05;8.10;;;3.83;;
59468;SDS011;45277;52.768;18.262;2023-05-17T08:53:39;13.15;;;3.63;;
59468;SDS011;45277;52.768;18.262;2023-05-17T08:55:15;10.63;;;2.90;;
59468;SDS011;45277;52.768;18.262;2023-05-17T08:56:48;7.88;;;3.28;;
59468;SDS011;45277;52.768;18.262;2023-05-17T08:58:26;8.82;;;3.60;;
59468;SDS011;45277;52.768;18.262;2023-05-17T09:00:02;8.27;;;3.42;;
59468;SDS011;45277;52.768;18.262;2023-05-17T09:01:46;9.85;;;3.83;;
59468;SDS011;45277;52.768;18.262;2023-05-17T09:03:20;6.20;;;2.67;;
59468;SDS011;45277;52.768;18.262;2023-05-17T09:04:53;10.82;;;4.35;;
59468;SDS011;45277;52.768;18.262;2023-05-17T09:06:26;15.20;;;4.78;;
59468;SDS011;45277;52.768;18.262;2023-05-17T09:07:58;10.63;;;3.53;;
59468;SDS011;45277;52.768;18.262;2023-05-17T09:09:30;12.90;;;4.00;;
59468;SDS011;45277;52.768;18.262;2023-05-17T09:11:04;8.13;;;3.45;;
59468;SDS011;45277;52.768;18.262;2023-05-17T09:12:35;8.45;;;3.53;;